createdAt,value
2018-12-10T00:00:33.164Z,88.76
2018-12-10T00:01:33.160Z,89.28
2018-12-10T00:02:33.146Z,88.76
2018-12-10T00:03:33.137Z,89.48
2018-12-10T00:04:33.123Z,90.72
2018-12-10T00:05:33.123Z,90.20
2018-12-10T00:06:33.102Z,90.00
2018-12-10T00:07:33.082Z,89.69
2018-12-10T00:08:33.073Z,89.17
2018-12-10T00:09:33.078Z,88.56
2018-12-10T00:10:41.401Z,89.01
2018-12-10T00:11:34.047Z,88.86
2018-12-10T00:12:33.025Z,90.72
2018-12-10T00:13:33.018Z,89.69
2018-12-10T00:14:33.008Z,89.38
2018-12-10T00:15:33.003Z,90.10
2018-12-10T00:16:32.996Z,89.89
2018-12-10T00:17:32.989Z,89.69
2018-12-10T00:18:32.961Z,89.58
2018-12-10T00:19:32.986Z,88.65
2018-12-10T00:20:32.941Z,88.35
2018-12-10T00:21:32.926Z,88.10
2018-12-10T00:22:32.943Z,87.93
2018-12-10T00:23:32.924Z,87.83
2018-12-10T00:24:32.899Z,88.35
2018-12-10T00:25:32.897Z,88.24
2018-12-10T00:26:32.869Z,88.56
2018-12-10T00:27:32.879Z,88.35
2018-12-10T00:28:32.849Z,88.65
2018-12-10T00:29:32.841Z,89.28
2018-12-10T00:30:32.827Z,88.76
2018-12-10T00:31:32.830Z,88.24
2018-12-10T00:32:32.817Z,88.24
2018-12-10T00:33:32.799Z,88.65
2018-12-10T00:34:32.783Z,89.48
2018-12-10T00:35:32.780Z,89.28
2018-12-10T00:36:32.761Z,88.76
2018-12-10T00:37:32.762Z,88.86
2018-12-10T00:38:32.754Z,88.76
2018-12-10T00:39:32.734Z,89.17
2018-12-10T00:40:32.722Z,89.83
2018-12-10T00:41:32.714Z,89.07
2018-12-10T00:42:32.717Z,88.45
2018-12-10T00:43:32.687Z,89.07
2018-12-10T00:44:32.682Z,89.28
2018-12-10T00:45:32.663Z,89.58
2018-12-10T00:46:32.653Z,90.45
2018-12-10T00:47:32.651Z,90.25
2018-12-10T00:48:32.630Z,90.76
2018-12-10T00:49:32.619Z,91.07
2018-12-10T00:50:32.623Z,91.17
2018-12-10T00:51:32.599Z,91.28
2018-12-10T00:52:32.594Z,91.58
2018-12-10T00:53:32.573Z,91.58
2018-12-10T00:54:32.561Z,91.28
2018-12-10T00:55:32.559Z,91.17
2018-12-10T00:56:32.566Z,90.66
2018-12-10T00:57:32.539Z,90.45
2018-12-10T00:58:32.517Z,90.55
2018-12-10T00:59:32.505Z,90.66
2018-12-10T01:00:32.499Z,90.66
2018-12-10T01:01:32.487Z,90.76
2018-12-10T01:02:32.498Z,90.86
2018-12-10T01:03:32.467Z,90.86
2018-12-10T01:04:32.451Z,90.86
2018-12-10T01:05:32.440Z,90.66
2018-12-10T01:06:32.438Z,90.35
2018-12-10T01:07:32.436Z,90.45
2018-12-10T01:08:32.410Z,90.45
2018-12-10T01:09:32.404Z,90.45
2018-12-10T01:10:32.385Z,90.35
2018-12-10T01:11:32.375Z,90.14
2018-12-10T01:12:32.375Z,90.14
2018-12-10T01:13:32.379Z,90.86
2018-12-10T01:14:32.348Z,90.76
2018-12-10T01:15:32.328Z,90.86
2018-12-10T01:16:32.332Z,90.86
2018-12-10T01:17:32.319Z,90.39
2018-12-10T01:18:32.317Z,90.04
2018-12-10T01:19:32.287Z,89.98
2018-12-10T01:20:32.284Z,89.52
2018-12-10T01:21:32.263Z,89.05
2018-12-10T01:22:32.274Z,89.67
2018-12-10T01:23:32.260Z,89.56
2018-12-10T01:24:32.235Z,89.73
2018-12-10T01:25:32.220Z,89.67
2018-12-10T01:26:32.210Z,90.14
2018-12-10T01:27:32.214Z,90.39
2018-12-10T01:28:32.189Z,90.19
2018-12-10T01:29:32.187Z,90.59
2018-12-10T01:30:32.178Z,90.19
2018-12-10T01:31:32.155Z,90.28
2018-12-10T01:32:32.153Z,89.98
2018-12-10T01:33:32.135Z,88.84
2018-12-10T01:34:32.123Z,88.84
2018-12-10T01:35:32.110Z,88.95
2018-12-10T01:36:32.104Z,89.56
2018-12-10T01:37:32.100Z,89.67
2018-12-10T01:38:32.077Z,89.36
2018-12-10T01:39:32.065Z,89.25
2018-12-10T01:40:32.065Z,88.84
2018-12-10T01:41:32.057Z,88.64
2018-12-10T01:42:32.047Z,88.64
2018-12-10T01:43:32.019Z,88.84
2018-12-10T01:44:32.019Z,88.95
2018-12-10T01:45:31.998Z,88.53
2018-12-10T01:46:31.989Z,88.70
2018-12-10T01:47:31.993Z,88.74
2018-12-10T01:48:31.965Z,88.53
2018-12-10T01:49:31.955Z,89.05
2018-12-10T01:50:31.946Z,88.84
2018-12-10T01:51:31.945Z,88.84
2018-12-10T01:52:31.934Z,88.64
2018-12-10T01:53:31.913Z,88.64
2018-12-10T01:54:31.904Z,88.64
2018-12-10T01:55:31.890Z,88.53
2018-12-10T01:56:31.891Z,88.74
2018-12-10T01:57:31.879Z,88.64
2018-12-10T01:58:31.863Z,88.70
2018-12-10T01:59:31.851Z,88.90
2018-12-10T02:00:31.831Z,88.80
2018-12-10T02:01:31.826Z,88.70
2018-12-10T02:02:31.823Z,88.84
2018-12-10T02:03:31.801Z,88.80
2018-12-10T02:04:31.792Z,88.70
2018-12-10T02:05:31.804Z,88.70
2018-12-10T02:06:31.765Z,88.70
2018-12-10T02:07:31.769Z,88.80
2018-12-10T02:08:31.753Z,89.22
2018-12-10T02:09:31.742Z,88.70
2018-12-10T02:10:31.726Z,88.59
2018-12-10T02:11:31.709Z,88.49
2018-12-10T02:12:31.701Z,88.90
2018-12-10T02:13:31.698Z,88.74
2018-12-10T02:14:31.696Z,89.05
2018-12-10T02:15:31.682Z,88.70
2018-12-10T02:16:31.668Z,88.32
2018-12-10T02:17:31.649Z,88.49
2018-12-10T02:18:31.646Z,88.53
2018-12-10T02:19:31.624Z,88.70
2018-12-10T02:20:31.614Z,88.59
2018-12-10T02:21:31.604Z,88.80
2018-12-10T02:22:31.592Z,88.80
2018-12-10T02:23:31.586Z,89.15
2018-12-10T02:24:31.569Z,89.36
2018-12-10T02:25:31.574Z,89.15
2018-12-10T02:26:31.566Z,89.62
2018-12-10T02:27:31.552Z,89.11
2018-12-10T02:28:31.530Z,89.01
2018-12-10T02:29:31.512Z,88.59
2018-12-10T02:30:31.501Z,87.77
2018-12-10T02:31:31.499Z,88.49
2018-12-10T02:32:31.479Z,88.29
2018-12-10T02:33:31.485Z,88.08
2018-12-10T02:34:31.467Z,88.18
2018-12-10T02:35:31.446Z,88.08
2018-12-10T02:36:31.435Z,87.05
2018-12-10T02:37:31.431Z,87.56
2018-12-10T02:38:31.437Z,87.15
2018-12-10T02:39:31.397Z,86.74
2018-12-10T02:40:31.405Z,86.63
2018-12-10T02:41:31.378Z,86.29
2018-12-10T02:42:31.370Z,86.22
2018-12-10T02:43:31.381Z,86.80
2018-12-10T02:44:31.374Z,86.70
2018-12-10T02:45:31.360Z,86.60
2018-12-10T02:46:31.323Z,86.49
2018-12-10T02:47:31.317Z,86.49
2018-12-10T02:48:31.313Z,86.60
2018-12-10T02:49:31.288Z,86.53
2018-12-10T02:50:31.314Z,86.53
2018-12-10T02:51:31.277Z,86.02
2018-12-10T02:52:31.263Z,86.43
2018-12-10T02:53:31.257Z,86.53
2018-12-10T02:54:31.235Z,85.39
2018-12-10T02:55:31.221Z,85.50
2018-12-10T02:56:31.218Z,84.27
2018-12-10T02:57:31.209Z,84.53
2018-12-10T02:58:31.205Z,84.53
2018-12-10T02:59:31.189Z,84.22
2018-12-10T03:00:31.177Z,83.81
2018-12-10T03:01:31.167Z,83.71
2018-12-10T03:02:31.151Z,83.50
2018-12-10T03:03:31.145Z,83.91
2018-12-10T03:04:31.124Z,83.61
2018-12-10T03:05:31.114Z,83.81
2018-12-10T03:06:31.106Z,83.64
2018-12-10T03:07:31.102Z,83.61
2018-12-10T03:08:31.090Z,83.50
2018-12-10T03:09:31.071Z,83.64
2018-12-10T03:10:31.070Z,83.61
2018-12-10T03:11:31.049Z,83.61
2018-12-10T03:12:31.036Z,83.71
2018-12-10T03:13:31.040Z,83.85
2018-12-10T03:14:31.013Z,83.85
2018-12-10T03:15:31.008Z,83.61
2018-12-10T03:16:30.989Z,83.75
2018-12-10T03:17:30.986Z,84.12
2018-12-10T03:18:30.984Z,83.50
2018-12-10T03:19:30.964Z,83.61
2018-12-10T03:20:30.970Z,83.23
2018-12-10T03:21:30.939Z,83.44
2018-12-10T03:22:30.923Z,82.98
2018-12-10T03:23:30.926Z,83.50
2018-12-10T03:24:30.914Z,83.54
2018-12-10T03:25:30.891Z,83.61
2018-12-10T03:26:30.898Z,83.81
2018-12-10T03:27:30.870Z,83.61
2018-12-10T03:28:30.868Z,83.29
2018-12-10T03:29:30.847Z,83.09
2018-12-10T03:30:30.840Z,82.98
2018-12-10T03:31:30.828Z,82.89
2018-12-10T03:32:30.814Z,82.98
2018-12-10T03:33:30.806Z,82.57
2018-12-10T03:34:30.804Z,82.78
2018-12-10T03:35:30.793Z,82.68
2018-12-10T03:36:30.779Z,82.37
2018-12-10T03:37:30.771Z,82.37
2018-12-10T03:38:30.751Z,82.78
2018-12-10T03:39:30.752Z,82.68
2018-12-10T03:40:30.731Z,82.16
2018-12-10T03:41:30.725Z,82.26
2018-12-10T03:42:30.741Z,82.68
2018-12-10T03:43:30.691Z,82.16
2018-12-10T03:44:30.688Z,82.47
2018-12-10T03:45:30.674Z,81.75
2018-12-10T03:46:30.659Z,81.75
2018-12-10T03:47:30.655Z,80.72
2018-12-10T03:48:30.662Z,81.34
2018-12-10T03:49:30.645Z,79.90
2018-12-10T03:50:30.616Z,80.30
2018-12-10T03:51:30.602Z,78.52
2018-12-10T03:52:30.598Z,78.66
2018-12-10T03:53:30.583Z,79.07
2018-12-10T03:54:38.526Z,79.65
2018-12-10T03:55:30.564Z,79.90
2018-12-10T03:56:30.554Z,78.93
2018-12-10T03:57:30.537Z,78.41
2018-12-10T03:58:30.548Z,78.11
2018-12-10T03:59:30.534Z,77.94
2018-12-10T04:00:30.505Z,78.34
2018-12-10T04:01:30.491Z,78.83
2018-12-10T04:02:30.483Z,78.04
2018-12-10T04:03:30.477Z,78.62
2018-12-10T04:04:30.474Z,78.52
2018-12-10T04:05:30.455Z,77.90
2018-12-10T04:06:30.439Z,77.90
2018-12-10T04:07:30.439Z,77.94
2018-12-10T04:08:30.508Z,77.52
2018-12-10T04:09:30.415Z,77.83
2018-12-10T04:10:30.396Z,77.11
2018-12-10T04:11:30.391Z,77.90
2018-12-10T04:12:30.383Z,77.18
2018-12-10T04:13:30.387Z,77.83
2018-12-10T04:14:30.363Z,77.11
2018-12-10T04:15:30.342Z,76.90
2018-12-10T04:16:30.337Z,77.48
2018-12-10T04:17:30.319Z,77.38
2018-12-10T04:18:30.318Z,76.08
2018-12-10T04:19:30.305Z,76.15
2018-12-10T04:20:30.283Z,75.87
2018-12-10T04:21:30.275Z,75.98
2018-12-10T04:22:30.261Z,76.39
2018-12-10T04:23:30.267Z,77.42
2018-12-10T04:24:30.280Z,77.42
2018-12-10T04:25:30.257Z,75.98
2018-12-10T04:26:30.221Z,76.90
2018-12-10T04:27:30.231Z,77.52
2018-12-10T04:28:30.200Z,79.75
2018-12-10T04:29:30.204Z,76.90
2018-12-10T04:30:30.198Z,76.46
2018-12-10T04:31:30.189Z,76.39
2018-12-10T04:32:30.150Z,76.59
2018-12-10T04:33:30.139Z,77.42
2018-12-10T04:34:30.144Z,77.94
2018-12-10T04:35:30.136Z,77.52
2018-12-10T04:36:30.118Z,77.11
2018-12-10T04:37:30.098Z,77.01
2018-12-10T04:38:30.086Z,76.59
2018-12-10T04:39:30.091Z,76.80
2018-12-10T04:40:30.063Z,76.18
2018-12-10T04:41:30.075Z,76.18
2018-12-10T04:42:30.042Z,75.87
2018-12-10T04:43:30.028Z,75.49
2018-12-10T04:44:30.029Z,75.15
2018-12-10T04:45:30.009Z,75.70
2018-12-10T04:46:30.003Z,75.39
2018-12-10T04:47:29.995Z,75.60
2018-12-10T04:48:29.972Z,75.60
2018-12-10T04:49:29.975Z,76.21
2018-12-10T04:50:29.952Z,76.32
2018-12-10T04:51:29.943Z,76.32
2018-12-10T04:52:29.931Z,76.21
2018-12-10T04:53:29.923Z,75.81
2018-12-10T04:54:29.919Z,76.32
2018-12-10T04:55:29.895Z,75.81
2018-12-10T04:56:29.886Z,76.32
2018-12-10T04:57:29.877Z,75.70
2018-12-10T04:58:29.861Z,76.32
2018-12-10T04:59:29.872Z,76.53
2018-12-10T05:00:29.840Z,76.32
2018-12-10T05:01:29.829Z,76.84
2018-12-10T05:02:29.819Z,76.53
2018-12-10T05:03:29.816Z,77.45
2018-12-10T05:04:29.827Z,77.76
2018-12-10T05:05:29.786Z,77.91
2018-12-10T05:06:29.777Z,77.35
2018-12-10T05:07:29.764Z,78.01
2018-12-10T05:08:29.851Z,78.21
2018-12-10T05:09:29.758Z,78.42
2018-12-10T05:10:29.740Z,78.73
2018-12-10T05:11:29.725Z,79.35
2018-12-10T05:12:29.706Z,79.55
2018-12-10T05:13:29.711Z,79.55
2018-12-10T05:14:29.699Z,79.76
2018-12-10T05:15:29.673Z,80.07
2018-12-10T05:16:29.668Z,80.07
2018-12-10T05:17:29.655Z,80.69
2018-12-10T05:18:29.648Z,80.48
2018-12-10T05:19:29.642Z,80.90
2018-12-10T05:20:29.624Z,80.79
2018-12-10T05:21:29.616Z,80.38
2018-12-10T05:22:29.612Z,80.48
2018-12-10T05:23:29.586Z,80.69
2018-12-10T05:24:29.599Z,80.48
2018-12-10T05:25:29.562Z,80.58
2018-12-10T05:26:29.555Z,80.73
2018-12-10T05:27:29.557Z,80.38
2018-12-10T05:28:29.638Z,80.21
2018-12-10T05:29:29.537Z,80.18
2018-12-10T05:30:29.528Z,79.90
2018-12-10T05:31:29.501Z,79.80
2018-12-10T05:32:29.489Z,79.80
2018-12-10T05:33:29.476Z,78.45
2018-12-10T05:34:29.490Z,78.14
2018-12-10T05:35:29.468Z,80.00
2018-12-10T05:36:29.443Z,78.77
2018-12-10T05:37:29.431Z,79.28
2018-12-10T05:38:29.442Z,79.69
2018-12-10T05:39:29.414Z,79.52
2018-12-10T05:40:29.424Z,79.80
2018-12-10T05:41:29.394Z,78.14
2018-12-10T05:42:29.376Z,78.97
2018-12-10T05:43:29.388Z,78.66
2018-12-10T05:44:29.358Z,78.97
2018-12-10T05:45:29.376Z,79.08
2018-12-10T05:46:29.333Z,78.45
2018-12-10T05:47:29.335Z,78.49
2018-12-10T05:48:29.313Z,78.49
2018-12-10T05:49:29.304Z,78.45
2018-12-10T05:50:29.316Z,78.14
2018-12-10T05:51:29.289Z,78.05
2018-12-10T05:52:29.270Z,78.45
2018-12-10T05:53:29.258Z,78.66
2018-12-10T05:54:29.243Z,78.35
2018-12-10T05:55:29.243Z,78.45
2018-12-10T05:56:29.241Z,77.63
2018-12-10T05:57:29.227Z,78.18
2018-12-10T05:58:29.208Z,78.49
2018-12-10T05:59:29.208Z,78.25
2018-12-10T06:00:29.191Z,78.87
2018-12-10T06:01:29.178Z,77.73
2018-12-10T06:02:29.161Z,77.87
2018-12-10T06:03:29.207Z,78.18
2018-12-10T06:04:29.134Z,77.77
2018-12-10T06:05:29.189Z,77.73
2018-12-10T06:06:29.112Z,78.45
2018-12-10T06:07:29.109Z,78.08
2018-12-10T06:08:29.101Z,78.56
2018-12-10T06:09:29.084Z,77.84
2018-12-10T06:10:29.081Z,77.53
2018-12-10T06:11:29.056Z,78.05
2018-12-10T06:12:29.055Z,78.45
2018-12-10T06:13:29.035Z,77.98
2018-12-10T06:14:29.070Z,78.45
2018-12-10T06:15:29.025Z,78.45
2018-12-10T06:16:28.999Z,78.25
2018-12-10T06:17:28.988Z,78.66
2018-12-10T06:18:28.990Z,78.45
2018-12-10T06:19:28.966Z,78.66
2018-12-10T06:20:28.972Z,79.11
2018-12-10T06:21:28.961Z,78.35
2018-12-10T06:22:28.940Z,78.49
2018-12-10T06:23:28.922Z,78.77
2018-12-10T06:24:28.909Z,78.28
2018-12-10T06:25:28.913Z,78.35
2018-12-10T06:26:28.891Z,78.66
2018-12-10T06:27:28.882Z,78.70
2018-12-10T06:28:28.866Z,79.69
2018-12-10T06:29:28.853Z,79.80
2018-12-10T06:30:28.857Z,79.73
2018-12-10T06:31:28.848Z,79.80
2018-12-10T06:32:28.829Z,79.59
2018-12-10T06:33:28.812Z,80.00
2018-12-10T06:34:28.799Z,79.11
2018-12-10T06:35:28.835Z,79.80
2018-12-10T06:36:28.777Z,79.59
2018-12-10T06:37:28.779Z,79.73
2018-12-10T06:38:28.763Z,79.52
2018-12-10T06:39:28.743Z,79.59
2018-12-10T06:40:28.745Z,79.69
2018-12-10T06:41:28.722Z,78.97
2018-12-10T06:42:28.713Z,79.69
2018-12-10T06:43:28.712Z,79.59
2018-12-10T06:44:28.686Z,79.69
2018-12-10T06:45:28.693Z,80.52
2018-12-10T06:46:28.671Z,80.11
2018-12-10T06:47:28.656Z,79.80
2018-12-10T06:48:28.648Z,80.25
2018-12-10T06:49:28.642Z,79.83
2018-12-10T06:50:28.635Z,79.69
2018-12-10T06:51:28.611Z,79.59
2018-12-10T06:52:28.599Z,80.56
2018-12-10T06:53:28.594Z,80.25
2018-12-10T06:54:28.584Z,80.21
2018-12-10T06:55:28.591Z,80.00
2018-12-10T06:56:28.598Z,80.11
2018-12-10T06:57:28.555Z,80.52
2018-12-10T06:58:28.532Z,80.87
2018-12-10T06:59:28.531Z,80.76
2018-12-10T07:00:28.528Z,80.73
2018-12-10T07:01:28.519Z,80.73
2018-12-10T07:02:28.506Z,80.42
2018-12-10T07:03:28.476Z,80.42
2018-12-10T07:04:28.481Z,80.32
2018-12-10T07:05:28.477Z,80.21
2018-12-10T07:06:28.449Z,80.46
2018-12-10T07:07:28.440Z,80.21
2018-12-10T07:08:28.422Z,80.46
2018-12-10T07:09:28.415Z,80.35
2018-12-10T07:10:28.398Z,80.46
2018-12-10T07:11:28.405Z,80.83
2018-12-10T07:12:28.391Z,80.04
2018-12-10T07:13:28.418Z,80.25
2018-12-10T07:14:28.375Z,80.35
2018-12-10T07:15:28.344Z,80.32
2018-12-10T07:16:28.347Z,80.11
2018-12-10T07:17:28.337Z,81.35
2018-12-10T07:18:28.312Z,80.52
2018-12-10T07:19:28.322Z,80.73
2018-12-10T07:20:28.292Z,80.32
2018-12-10T07:21:28.292Z,79.90
2018-12-10T07:22:28.273Z,79.80
2018-12-10T07:23:28.264Z,79.69
2018-12-10T07:24:28.252Z,79.49
2018-12-10T07:25:28.238Z,79.59
2018-12-10T07:26:28.249Z,79.49
2018-12-10T07:27:28.213Z,79.90
2018-12-10T07:28:28.234Z,79.69
2018-12-10T07:29:28.198Z,79.69
2018-12-10T07:30:28.202Z,79.59
2018-12-10T07:31:28.179Z,79.59
2018-12-10T07:32:28.172Z,79.69
2018-12-10T07:33:28.147Z,79.59
2018-12-10T07:34:28.136Z,79.59
2018-12-10T07:35:28.133Z,79.69
2018-12-10T07:36:28.126Z,79.49
2018-12-10T07:37:28.103Z,79.49
2018-12-10T07:38:28.096Z,79.69
2018-12-10T07:39:28.090Z,79.59
2018-12-10T07:40:28.076Z,79.08
2018-12-10T07:41:28.076Z,79.66
2018-12-10T07:42:28.056Z,79.90
2018-12-10T07:43:28.041Z,78.77
2018-12-10T07:44:28.027Z,79.69
2018-12-10T07:45:28.026Z,79.76
2018-12-10T07:46:28.008Z,79.80
2018-12-10T07:47:28.008Z,79.66
2018-12-10T07:48:27.978Z,78.52
2018-12-10T07:49:27.975Z,78.56
2018-12-10T07:50:27.980Z,78.73
2018-12-10T07:51:27.948Z,79.76
2018-12-10T07:52:27.949Z,79.76
2018-12-10T07:53:27.927Z,79.86
2018-12-10T07:54:27.911Z,80.07
2018-12-10T07:55:27.916Z,79.76
2018-12-10T07:56:29.137Z,79.76
2018-12-10T07:57:27.903Z,78.73
2018-12-10T07:58:27.887Z,78.01
2018-12-10T07:59:27.858Z,78.42
2018-12-10T08:00:27.849Z,77.49
2018-12-10T08:01:27.832Z,77.59
2018-12-10T08:02:27.841Z,77.91
2018-12-10T08:03:27.822Z,78.21
2018-12-10T08:04:27.810Z,78.42
2018-12-10T08:05:27.790Z,77.80
2018-12-10T08:06:27.779Z,77.70
2018-12-10T08:07:27.783Z,77.59
2018-12-10T08:08:27.759Z,77.59
2018-12-10T08:09:27.757Z,77.80
2018-12-10T08:10:27.736Z,77.80
2018-12-10T08:11:27.722Z,77.59
2018-12-10T08:12:27.735Z,77.91
2018-12-10T08:13:27.707Z,78.01
2018-12-10T08:14:27.727Z,77.28
2018-12-10T08:15:27.698Z,76.98
2018-12-10T08:16:27.673Z,77.18
2018-12-10T08:17:27.670Z,76.67
2018-12-10T08:18:27.654Z,77.18
2018-12-10T08:19:27.655Z,77.28
2018-12-10T08:20:27.629Z,77.39
2018-12-10T08:21:27.619Z,77.18
2018-12-10T08:22:27.692Z,77.91
2018-12-10T08:23:27.605Z,77.49
2018-12-10T08:24:27.583Z,76.67
2018-12-10T08:25:27.570Z,77.08
2018-12-10T08:26:27.592Z,76.98
2018-12-10T08:27:27.570Z,76.35
2018-12-10T08:28:27.542Z,76.87
2018-12-10T08:29:27.525Z,76.73
2018-12-10T08:30:27.532Z,76.67
2018-12-10T08:31:27.538Z,76.25
2018-12-10T08:32:27.512Z,75.63
2018-12-10T08:33:27.495Z,76.04
2018-12-10T08:34:27.475Z,76.32
2018-12-10T08:35:27.459Z,76.15
2018-12-10T08:36:27.452Z,76.25
2018-12-10T08:37:27.470Z,76.46
2018-12-10T08:38:27.423Z,76.35
2018-12-10T08:39:27.412Z,75.84
2018-12-10T08:40:27.414Z,76.98
2018-12-10T08:41:27.393Z,76.56
2018-12-10T08:42:27.402Z,77.39
2018-12-10T08:43:27.370Z,76.84
2018-12-10T08:44:27.358Z,76.56
2018-12-10T08:45:27.351Z,76.15
2018-12-10T08:46:27.335Z,76.25
2018-12-10T08:47:27.347Z,76.35
2018-12-10T08:48:27.323Z,75.81
2018-12-10T08:49:27.300Z,77.04
2018-12-10T08:50:27.293Z,76.87
2018-12-10T08:51:27.280Z,75.43
2018-12-10T08:52:27.272Z,76.15
2018-12-10T08:53:27.279Z,76.21
2018-12-10T08:54:27.260Z,76.42
2018-12-10T08:55:27.287Z,77.25
2018-12-10T08:56:27.230Z,76.84
2018-12-10T08:57:27.212Z,76.42
2018-12-10T08:58:27.215Z,76.42
2018-12-10T08:59:27.191Z,76.04
2018-12-10T09:00:27.179Z,76.15
2018-12-10T09:01:27.168Z,76.77
2018-12-10T09:02:27.162Z,76.15
2018-12-10T09:03:27.164Z,76.46
2018-12-10T09:04:27.153Z,77.39
2018-12-10T09:05:27.132Z,76.25
2018-12-10T09:06:27.114Z,76.25
2018-12-10T09:07:27.102Z,76.08
2018-12-10T09:08:27.109Z,73.88
2018-12-10T09:09:27.078Z,74.05
2018-12-10T09:10:27.070Z,74.80
2018-12-10T09:11:27.066Z,74.91
2018-12-10T09:12:27.093Z,74.63
2018-12-10T09:13:27.051Z,75.05
2018-12-10T09:14:27.024Z,75.05
2018-12-10T09:15:27.019Z,75.05
2018-12-10T09:16:27.003Z,75.56
2018-12-10T09:17:26.999Z,75.46
2018-12-10T09:18:27.015Z,75.29
2018-12-10T09:19:26.982Z,75.77
2018-12-10T09:20:26.967Z,76.21
2018-12-10T09:21:26.945Z,75.81
2018-12-10T09:22:26.943Z,75.91
2018-12-10T09:23:26.960Z,77.15
2018-12-10T09:24:26.914Z,75.15
2018-12-10T09:25:26.917Z,76.12
2018-12-10T09:26:26.893Z,75.87
2018-12-10T09:27:26.885Z,75.15
2018-12-10T09:28:26.868Z,74.95
2018-12-10T09:29:26.881Z,75.15
2018-12-10T09:30:26.847Z,74.74
2018-12-10T09:31:26.844Z,75.67
2018-12-10T09:32:26.856Z,74.63
2018-12-10T09:33:26.817Z,74.22
2018-12-10T09:34:26.833Z,74.12
2018-12-10T09:35:26.799Z,73.81
2018-12-10T09:36:26.783Z,73.47
2018-12-10T09:37:26.790Z,74.19
2018-12-10T09:38:26.759Z,73.78
2018-12-10T09:39:26.763Z,72.44
2018-12-10T09:40:26.740Z,69.67
2018-12-10T09:41:26.732Z,67.79
2018-12-10T09:42:26.721Z,66.60
2018-12-10T09:43:26.706Z,65.88
2018-12-10T09:44:26.713Z,65.57
2018-12-10T09:45:26.680Z,66.55
2018-12-10T09:46:27.667Z,67.92
2018-12-10T09:47:26.671Z,68.33
2018-12-10T09:48:26.660Z,68.57
2018-12-10T09:49:26.661Z,69.53
2018-12-10T09:50:26.630Z,69.63
2018-12-10T09:51:26.620Z,70.90
2018-12-10T09:52:26.613Z,70.28
2018-12-10T09:53:26.611Z,71.51
2018-12-10T09:54:26.595Z,71.20
2018-12-10T09:55:26.571Z,71.20
2018-12-10T09:56:26.558Z,71.41
2018-12-10T09:57:26.546Z,71.31
2018-12-10T09:58:26.534Z,71.41
2018-12-10T09:59:26.539Z,71.31
2018-12-10T10:00:26.514Z,71.41
2018-12-10T10:01:26.502Z,71.41
2018-12-10T10:02:26.492Z,72.34
2018-12-10T10:03:26.553Z,71.92
2018-12-10T10:04:26.581Z,72.03
2018-12-10T10:05:26.462Z,72.03
2018-12-10T10:06:26.448Z,70.79
2018-12-10T10:07:28.525Z,71.17
2018-12-10T10:08:26.426Z,69.84
2018-12-10T10:09:26.429Z,70.38
2018-12-10T10:10:26.407Z,70.79
2018-12-10T10:11:26.412Z,70.90
2018-12-10T10:12:26.379Z,71.51
2018-12-10T10:13:26.375Z,70.97
2018-12-10T10:14:26.392Z,71.31
2018-12-10T10:15:26.358Z,70.76
2018-12-10T10:16:26.342Z,69.87
2018-12-10T10:17:26.333Z,70.59
2018-12-10T10:18:26.320Z,69.66
2018-12-10T10:19:26.323Z,70.79
2018-12-10T10:20:26.299Z,70.28
2018-12-10T10:21:26.282Z,70.79
2018-12-10T10:22:26.269Z,70.48
2018-12-10T10:23:26.259Z,69.76
2018-12-10T10:24:26.289Z,70.28
2018-12-10T10:25:26.237Z,70.69
2018-12-10T10:26:26.227Z,71.10
2018-12-10T10:27:26.218Z,70.90
2018-12-10T10:28:26.205Z,70.59
2018-12-10T10:29:26.192Z,70.07
2018-12-10T10:30:26.194Z,69.87
2018-12-10T10:31:26.174Z,70.21
2018-12-10T10:32:26.163Z,70.52
2018-12-10T10:33:32.360Z,70.83
2018-12-10T10:34:27.148Z,70.93
2018-12-10T10:35:26.143Z,70.42
2018-12-10T10:36:26.117Z,70.83
2018-12-10T10:37:26.110Z,71.03
2018-12-10T10:38:26.093Z,72.54
2018-12-10T10:39:26.082Z,70.59
2018-12-10T10:40:26.085Z,69.87
2018-12-10T10:41:31.251Z,71.00
2018-12-10T10:42:27.053Z,70.28
2018-12-10T10:43:26.039Z,70.59
2018-12-10T10:44:26.035Z,70.28
2018-12-10T10:45:26.028Z,69.25
2018-12-10T10:46:26.008Z,69.90
2018-12-10T10:47:25.994Z,70.62
2018-12-10T10:48:25.986Z,70.59
2018-12-10T10:49:25.974Z,71.10
2018-12-10T10:50:25.979Z,70.48
2018-12-10T10:51:25.950Z,70.79
2018-12-10T10:52:25.939Z,71.31
2018-12-10T10:53:25.930Z,70.04
2018-12-10T10:54:25.921Z,70.48
2018-12-10T10:55:25.925Z,69.97
2018-12-10T10:56:25.901Z,70.38
2018-12-10T10:57:25.886Z,69.87
2018-12-10T10:58:25.882Z,69.25
2018-12-10T10:59:25.875Z,69.15
2018-12-10T11:00:25.864Z,69.76
2018-12-10T11:01:25.844Z,70.07
2018-12-10T11:02:25.853Z,70.07
2018-12-10T11:03:25.824Z,70.28
2018-12-10T11:04:25.810Z,70.90
2018-12-10T11:05:25.815Z,70.48
2018-12-10T11:06:25.787Z,70.28
2018-12-10T11:07:25.795Z,70.28
2018-12-10T11:08:25.763Z,70.59
2018-12-10T11:09:25.762Z,70.38
2018-12-10T11:10:25.751Z,70.69
2018-12-10T11:11:25.734Z,70.59
2018-12-10T11:12:25.717Z,71.20
2018-12-10T11:13:25.712Z,70.38
2018-12-10T11:14:25.696Z,70.07
2018-12-10T11:15:25.697Z,70.59
2018-12-10T11:16:25.683Z,70.90
2018-12-10T11:17:25.663Z,70.56
2018-12-10T11:18:25.825Z,70.45
2018-12-10T11:19:25.640Z,70.66
2018-12-10T11:20:25.641Z,70.86
2018-12-10T11:21:25.618Z,69.53
2018-12-10T11:22:25.606Z,69.63
2018-12-10T11:23:25.599Z,69.63
2018-12-10T11:24:25.588Z,70.66
2018-12-10T11:25:25.700Z,69.63
2018-12-10T11:26:25.567Z,69.63
2018-12-10T11:27:25.552Z,69.73
2018-12-10T11:28:25.547Z,69.66
2018-12-10T11:29:25.533Z,69.97
2018-12-10T11:30:25.535Z,70.18
2018-12-10T11:31:25.514Z,70.79
2018-12-10T11:32:25.503Z,70.90
2018-12-10T11:33:25.489Z,70.97
2018-12-10T11:34:25.474Z,70.76
2018-12-10T11:35:25.481Z,70.35
2018-12-10T11:36:25.455Z,69.94
2018-12-10T11:37:25.441Z,70.04
2018-12-10T11:38:25.438Z,69.63
2018-12-10T11:39:25.425Z,69.63
2018-12-10T11:40:25.443Z,69.53
2018-12-10T11:41:25.398Z,70.04
2018-12-10T11:42:25.387Z,69.84
2018-12-10T11:43:25.396Z,70.25
2018-12-10T11:44:25.366Z,70.45
2018-12-10T11:45:25.386Z,69.32
2018-12-10T11:46:25.350Z,69.42
2018-12-10T11:47:25.339Z,68.40
2018-12-10T11:48:25.320Z,66.64
2018-12-10T11:49:25.312Z,66.64
2018-12-10T11:50:25.316Z,65.92
2018-12-10T11:51:25.289Z,64.59
2018-12-10T11:52:25.309Z,64.48
2018-12-10T11:53:25.267Z,63.76
2018-12-10T11:54:25.257Z,63.74
2018-12-10T11:55:25.255Z,63.74
2018-12-10T11:56:25.294Z,64.07
2018-12-10T11:57:25.223Z,63.94
2018-12-10T11:58:25.209Z,64.66
2018-12-10T11:59:25.199Z,64.15
2018-12-10T12:00:25.584Z,64.46
2018-12-10T12:01:25.187Z,64.15
2018-12-10T12:02:29.753Z,64.36
2018-12-10T12:03:25.204Z,64.36
2018-12-10T12:04:25.147Z,63.64
2018-12-10T12:05:25.194Z,63.84
2018-12-10T12:06:25.122Z,63.74
2018-12-10T12:07:25.125Z,63.43
2018-12-10T12:08:25.111Z,63.76
2018-12-10T12:09:25.100Z,63.46
2018-12-10T12:10:25.077Z,63.15
2018-12-10T12:11:25.080Z,62.81
2018-12-10T12:12:25.055Z,63.97
2018-12-10T12:13:25.041Z,63.35
2018-12-10T12:14:25.032Z,62.95
2018-12-10T12:15:25.029Z,63.56
2018-12-10T12:16:25.023Z,62.84
2018-12-10T12:17:24.999Z,63.25
2018-12-10T12:18:24.998Z,62.81
2018-12-10T12:19:24.980Z,63.02
2018-12-10T12:20:24.965Z,62.51
2018-12-10T12:21:24.968Z,63.12
2018-12-10T12:22:24.941Z,63.43
2018-12-10T12:23:24.940Z,63.12
2018-12-10T12:24:24.931Z,63.43
2018-12-10T12:25:24.941Z,63.12
2018-12-10T12:26:24.938Z,63.02
2018-12-10T12:27:24.889Z,63.43
2018-12-10T12:28:24.877Z,62.60
2018-12-10T12:29:24.866Z,61.07
2018-12-10T12:30:24.863Z,61.68
2018-12-10T12:31:24.866Z,62.30
2018-12-10T12:32:24.835Z,61.58
2018-12-10T12:33:24.823Z,61.55
2018-12-10T12:34:24.822Z,61.47
2018-12-10T12:35:24.901Z,61.27
2018-12-10T12:36:24.801Z,60.96
2018-12-10T12:37:24.777Z,61.86
2018-12-10T12:38:24.765Z,61.99
2018-12-10T12:39:24.756Z,61.86
2018-12-10T12:40:24.746Z,60.75
2018-12-10T12:41:24.758Z,60.83
2018-12-10T12:42:24.735Z,60.83
2018-12-10T12:43:24.710Z,61.35
2018-12-10T12:44:24.707Z,61.14
2018-12-10T12:45:24.691Z,61.35
2018-12-10T12:46:25.014Z,61.44
2018-12-10T12:47:24.670Z,61.11
2018-12-10T12:48:24.654Z,61.62
2018-12-10T12:49:24.647Z,60.73
2018-12-10T12:50:24.630Z,60.88
2018-12-10T12:51:24.752Z,60.29
2018-12-10T12:52:24.618Z,60.49